sensor_id;sensor_type;location;lat;lon;timestamp;P1;durP1;ratioP1;P2;durP2;ratioP2
67528;SDS011;54366;51.980;5.856;2023-04-24T00:00:30;3.10;;;2.67;;
67528;SDS011;54366;51.980;5.856;2023-04-24T00:03:04;3.60;;;3.30;;
67528;SDS011;54366;51.980;5.856;2023-04-24T00:05:32;3.17;;;2.95;;
67528;SDS011;54366;51.980;5.856;2023-04-24T00:08:04;4.20;;;3.90;;
67528;SDS011;54366;51.980;5.856;2023-04-24T00:10:37;4.50;;;4.20;;
67528;SDS011;54366;51.980;5.856;2023-04-24T00:13:10;4.25;;;3.97;;
67528;SDS011;54366;51.980;5.856;2023-04-24T00:15:37;4.20;;;3.90;;
67528;SDS011;54366;51.980;5.856;2023-04-24T00:18:09;3.20;;;3.00;;
67528;SDS011;54366;51.980;5.856;2023-04-24T00:20:42;3.10;;;2.90;;
67528;SDS011;54366;51.980;5.856;2023-04-24T00:23:09;3.50;;;3.20;;
67528;SDS011;54366;51.980;5.856;2023-04-24T00:25:42;2.60;;;2.40;;
67528;SDS011;54366;51.980;5.856;2023-04-24T00:28:15;2.25;;;2.15;;
67528;SDS011;54366;51.980;5.856;2023-04-24T00:30:48;2.17;;;1.73;;
67528;SDS011;54366;51.980;5.856;2023-04-24T00:33:15;1.52;;;1.30;;
67528;SDS011;54366;51.980;5.856;2023-04-24T00:35:47;1.00;;;1.00;;
67528;SDS011;54366;51.980;5.856;2023-04-24T00:38:20;0.77;;;0.77;;
67528;SDS011;54366;51.980;5.856;2023-04-24T00:40:53;0.98;;;0.80;;
67528;SDS011;54366;51.980;5.856;2023-04-24T00:43:20;0.90;;;0.90;;
67528;SDS011;54366;51.980;5.856;2023-04-24T00:45:53;1.20;;;0.80;;
67528;SDS011;54366;51.980;5.856;2023-04-24T00:48:21;1.70;;;1.15;;
67528;SDS011;54366;51.980;5.856;2023-04-24T00:50:54;1.23;;;1.13;;
67528;SDS011;54366;51.980;5.856;2023-04-24T00:53:21;1.80;;;1.50;;
67528;SDS011;54366;51.980;5.856;2023-04-24T00:55:54;1.58;;;1.48;;
67528;SDS011;54366;51.980;5.856;2023-04-24T00:58:22;1.40;;;1.30;;
67528;SDS011;54366;51.980;5.856;2023-04-24T01:00:54;1.33;;;1.30;;
67528;SDS011;54366;51.980;5.856;2023-04-24T01:03:29;1.65;;;1.55;;
67528;SDS011;54366;51.980;5.856;2023-04-24T01:06:10;1.90;;;1.80;;
67528;SDS011;54366;51.980;5.856;2023-04-24T01:08:42;2.08;;;1.98;;
67528;SDS011;54366;51.980;5.856;2023-04-24T01:11:17;2.17;;;2.08;;
67528;SDS011;54366;51.980;5.856;2023-04-24T01:13:51;2.60;;;2.40;;
67528;SDS011;54366;51.980;5.856;2023-04-24T01:16:23;4.68;;;4.28;;
67528;SDS011;54366;51.980;5.856;2023-04-24T01:18:56;8.68;;;7.95;;
67528;SDS011;54366;51.980;5.856;2023-04-24T01:21:29;8.50;;;7.70;;
67528;SDS011;54366;51.980;5.856;2023-04-24T01:24:06;10.48;;;9.48;;
67528;SDS011;54366;51.980;5.856;2023-04-24T01:26:39;9.52;;;8.63;;
67528;SDS011;54366;51.980;5.856;2023-04-24T01:29:12;11.45;;;10.23;;
67528;SDS011;54366;51.980;5.856;2023-04-24T01:31:45;10.02;;;9.02;;
67528;SDS011;54366;51.980;5.856;2023-04-24T01:34:18;10.57;;;9.57;;
67528;SDS011;54366;51.980;5.856;2023-04-24T01:36:51;9.52;;;8.60;;
67528;SDS011;54366;51.980;5.856;2023-04-24T01:39:25;7.85;;;7.15;;
67528;SDS011;54366;51.980;5.856;2023-04-24T01:42:00;5.50;;;5.05;;
67528;SDS011;54366;51.980;5.856;2023-04-24T01:44:34;6.53;;;5.93;;
67528;SDS011;54366;51.980;5.856;2023-04-24T01:47:07;5.30;;;4.82;;
67528;SDS011;54366;51.980;5.856;2023-04-24T01:49:40;4.82;;;4.43;;
67528;SDS011;54366;51.980;5.856;2023-04-24T01:52:13;4.30;;;3.90;;
67528;SDS011;54366;51.980;5.856;2023-04-24T01:54:46;3.72;;;3.42;;
67528;SDS011;54366;51.980;5.856;2023-04-24T01:57:19;3.50;;;3.20;;
67528;SDS011;54366;51.980;5.856;2023-04-24T01:59:46;3.65;;;3.40;;
67528;SDS011;54366;51.980;5.856;2023-04-24T02:02:18;4.85;;;4.45;;
67528;SDS011;54366;51.980;5.856;2023-04-24T02:04:53;5.80;;;5.30;;
67528;SDS011;54366;51.980;5.856;2023-04-24T02:07:26;5.88;;;5.38;;
67528;SDS011;54366;51.980;5.856;2023-04-24T02:10:08;5.93;;;5.43;;
67528;SDS011;54366;51.980;5.856;2023-04-24T02:12:42;6.43;;;5.82;;
67528;SDS011;54366;51.980;5.856;2023-04-24T02:15:14;6.10;;;5.60;;
67528;SDS011;54366;51.980;5.856;2023-04-24T02:17:47;7.18;;;6.47;;
67528;SDS011;54366;51.980;5.856;2023-04-24T02:20:14;7.10;;;6.47;;
67528;SDS011;54366;51.980;5.856;2023-04-24T02:22:46;7.88;;;7.20;;
67528;SDS011;54366;51.980;5.856;2023-04-24T02:25:19;10.82;;;9.80;;
67528;SDS011;54366;51.980;5.856;2023-04-24T02:27:54;10.73;;;9.68;;
67528;SDS011;54366;51.980;5.856;2023-04-24T02:30:27;13.50;;;12.20;;
67528;SDS011;54366;51.980;5.856;2023-04-24T02:33:00;17.48;;;15.88;;
67528;SDS011;54366;51.980;5.856;2023-04-24T02:35:27;20.30;;;18.38;;
67528;SDS011;54366;51.980;5.856;2023-04-24T02:37:59;18.88;;;16.98;;
67528;SDS011;54366;51.980;5.856;2023-04-24T02:40:32;20.40;;;18.40;;
67528;SDS011;54366;51.980;5.856;2023-04-24T02:43:05;20.25;;;18.27;;
67528;SDS011;54366;51.980;5.856;2023-04-24T02:45:38;16.20;;;14.60;;
67528;SDS011;54366;51.980;5.856;2023-04-24T02:48:11;18.63;;;16.77;;
67528;SDS011;54366;51.980;5.856;2023-04-24T02:50:44;16.27;;;14.75;;
67528;SDS011;54366;51.980;5.856;2023-04-24T02:53:11;16.48;;;14.88;;
67528;SDS011;54366;51.980;5.856;2023-04-24T02:55:43;14.55;;;13.25;;
67528;SDS011;54366;51.980;5.856;2023-04-24T02:58:11;15.27;;;13.77;;
67528;SDS011;54366;51.980;5.856;2023-04-24T03:00:45;17.23;;;15.60;;
67528;SDS011;54366;51.980;5.856;2023-04-24T03:03:18;16.92;;;15.23;;
67528;SDS011;54366;51.980;5.856;2023-04-24T03:05:45;16.80;;;15.00;;
67528;SDS011;54366;51.980;5.856;2023-04-24T03:08:17;14.82;;;13.38;;
67528;SDS011;54366;51.980;5.856;2023-04-24T03:10:50;15.65;;;14.02;;
67528;SDS011;54366;51.980;5.856;2023-04-24T03:13:23;13.18;;;11.88;;
67528;SDS011;54366;51.980;5.856;2023-04-24T03:15:56;11.93;;;10.82;;
67528;SDS011;54366;51.980;5.856;2023-04-24T03:18:23;13.13;;;11.82;;
67528;SDS011;54366;51.980;5.856;2023-04-24T03:20:55;14.30;;;12.98;;
67528;SDS011;54366;51.980;5.856;2023-04-24T03:23:29;12.67;;;11.47;;
67528;SDS011;54366;51.980;5.856;2023-04-24T03:26:01;15.80;;;14.20;;
67528;SDS011;54366;51.980;5.856;2023-04-24T03:28:38;15.60;;;14.10;;
67528;SDS011;54366;51.980;5.856;2023-04-24T03:31:12;14.00;;;12.63;;
67528;SDS011;54366;51.980;5.856;2023-04-24T03:33:38;14.00;;;12.60;;
67528;SDS011;54366;51.980;5.856;2023-04-24T03:36:10;16.98;;;15.38;;
67528;SDS011;54366;51.980;5.856;2023-04-24T03:38:43;16.33;;;14.80;;
67528;SDS011;54366;51.980;5.856;2023-04-24T03:41:24;17.33;;;15.65;;
67528;SDS011;54366;51.980;5.856;2023-04-24T03:44:06;16.67;;;15.10;;
67528;SDS011;54366;51.980;5.856;2023-04-24T03:46:39;18.48;;;16.58;;
67528;SDS011;54366;51.980;5.856;2023-04-24T03:49:06;20.70;;;18.70;;
67528;SDS011;54366;51.980;5.856;2023-04-24T03:51:42;20.00;;;18.02;;
67528;SDS011;54366;51.980;5.856;2023-04-24T03:54:21;22.00;;;19.45;;
67528;SDS011;54366;51.980;5.856;2023-04-24T03:56:54;24.35;;;21.85;;
67528;SDS011;54366;51.980;5.856;2023-04-24T03:59:30;22.00;;;19.80;;
67528;SDS011;54366;51.980;5.856;2023-04-24T04:02:10;21.75;;;19.55;;
67528;SDS011;54366;51.980;5.856;2023-04-24T04:04:42;25.50;;;22.88;;
67528;SDS011;54366;51.980;5.856;2023-04-24T04:07:23;26.75;;;22.77;;
67528;SDS011;54366;51.980;5.856;2023-04-24T04:09:55;26.23;;;23.45;;
67528;SDS011;54366;51.980;5.856;2023-04-24T04:12:28;24.98;;;22.42;;
67528;SDS011;54366;51.980;5.856;2023-04-24T04:15:02;29.25;;;26.35;;
67528;SDS011;54366;51.980;5.856;2023-04-24T04:17:35;26.43;;;23.63;;
67528;SDS011;54366;51.980;5.856;2023-04-24T04:20:05;23.90;;;21.40;;
67528;SDS011;54366;51.980;5.856;2023-04-24T04:22:41;20.20;;;18.13;;
67528;SDS011;54366;51.980;5.856;2023-04-24T04:25:21;22.75;;;20.42;;
67528;SDS011;54366;51.980;5.856;2023-04-24T04:27:55;21.45;;;19.35;;
67528;SDS011;54366;51.980;5.856;2023-04-24T04:30:22;20.27;;;18.27;;
67528;SDS011;54366;51.980;5.856;2023-04-24T04:33:01;23.13;;;20.65;;
67528;SDS011;54366;51.980;5.856;2023-04-24T04:35:34;25.17;;;22.60;;
67528;SDS011;54366;51.980;5.856;2023-04-24T04:40:46;22.50;;;20.23;;
67528;SDS011;54366;51.980;5.856;2023-04-24T04:43:22;22.20;;;20.00;;
67528;SDS011;54366;51.980;5.856;2023-04-24T04:45:55;21.75;;;19.70;;
67528;SDS011;54366;51.980;5.856;2023-04-24T04:48:50;21.63;;;19.43;;
67528;SDS011;54366;51.980;5.856;2023-04-24T04:51:22;22.17;;;19.98;;
67528;SDS011;54366;51.980;5.856;2023-04-24T04:53:56;21.10;;;19.00;;
67528;SDS011;54366;51.980;5.856;2023-04-24T04:56:28;20.73;;;18.63;;
67528;SDS011;54366;51.980;5.856;2023-04-24T04:59:02;21.88;;;19.67;;
67528;SDS011;54366;51.980;5.856;2023-04-24T05:01:29;19.30;;;17.40;;
67528;SDS011;54366;51.980;5.856;2023-04-24T05:04:02;19.90;;;18.02;;
67528;SDS011;54366;51.980;5.856;2023-04-24T05:06:36;22.45;;;20.25;;
67528;SDS011;54366;51.980;5.856;2023-04-24T05:09:18;18.50;;;16.70;;
67528;SDS011;54366;51.980;5.856;2023-04-24T05:11:54;18.48;;;16.75;;
67528;SDS011;54366;51.980;5.856;2023-04-24T05:14:31;19.17;;;17.25;;
67528;SDS011;54366;51.980;5.856;2023-04-24T05:16:57;17.70;;;16.08;;
67528;SDS011;54366;51.980;5.856;2023-04-24T05:19:31;18.58;;;16.70;;
67528;SDS011;54366;51.980;5.856;2023-04-24T05:22:08;19.27;;;17.40;;
67528;SDS011;54366;51.980;5.856;2023-04-24T05:24:48;16.40;;;14.90;;
67528;SDS011;54366;51.980;5.856;2023-04-24T05:27:41;16.17;;;14.68;;
67528;SDS011;54366;51.980;5.856;2023-04-24T05:30:16;15.38;;;13.93;;
67528;SDS011;54366;51.980;5.856;2023-04-24T05:32:49;12.13;;;11.10;;
67528;SDS011;54366;51.980;5.856;2023-04-24T05:35:23;13.50;;;12.27;;
67528;SDS011;54366;51.980;5.856;2023-04-24T05:37:55;13.07;;;11.88;;
67528;SDS011;54366;51.980;5.856;2023-04-24T05:40:28;13.70;;;12.50;;
67528;SDS011;54366;51.980;5.856;2023-04-24T05:43:01;11.43;;;10.35;;
67528;SDS011;54366;51.980;5.856;2023-04-24T05:45:34;12.10;;;10.98;;
67528;SDS011;54366;51.980;5.856;2023-04-24T05:48:07;10.70;;;9.70;;
67528;SDS011;54366;51.980;5.856;2023-04-24T05:50:40;9.35;;;8.45;;
67528;SDS011;54366;51.980;5.856;2023-04-24T05:53:13;8.68;;;7.88;;
67528;SDS011;54366;51.980;5.856;2023-04-24T05:55:47;8.40;;;7.70;;
67528;SDS011;54366;51.980;5.856;2023-04-24T05:58:19;7.80;;;7.10;;
67528;SDS011;54366;51.980;5.856;2023-04-24T06:00:53;9.23;;;8.18;;
67528;SDS011;54366;51.980;5.856;2023-04-24T06:03:27;9.50;;;8.67;;
67528;SDS011;54366;51.980;5.856;2023-04-24T06:06:09;9.00;;;8.10;;
67528;SDS011;54366;51.980;5.856;2023-04-24T06:08:41;8.80;;;7.88;;
67528;SDS011;54366;51.980;5.856;2023-04-24T06:11:21;7.70;;;7.00;;
67528;SDS011;54366;51.980;5.856;2023-04-24T06:13:54;6.13;;;5.53;;
67528;SDS011;54366;51.980;5.856;2023-04-24T06:16:56;6.00;;;5.40;;
67528;SDS011;54366;51.980;5.856;2023-04-24T06:19:35;6.10;;;5.50;;
67528;SDS011;54366;51.980;5.856;2023-04-24T06:22:08;6.50;;;5.88;;
67528;SDS011;54366;51.980;5.856;2023-04-24T06:24:41;6.47;;;5.80;;
67528;SDS011;54366;51.980;5.856;2023-04-24T06:27:14;7.50;;;6.80;;
67528;SDS011;54366;51.980;5.856;2023-04-24T06:29:47;6.53;;;5.93;;
67528;SDS011;54366;51.980;5.856;2023-04-24T06:32:26;6.07;;;5.57;;
67528;SDS011;54366;51.980;5.856;2023-04-24T06:34:53;7.00;;;6.32;;
67528;SDS011;54366;51.980;5.856;2023-04-24T06:37:25;6.50;;;5.90;;
67528;SDS011;54366;51.980;5.856;2023-04-24T06:39:58;5.50;;;5.00;;
67528;SDS011;54366;51.980;5.856;2023-04-24T06:42:25;5.07;;;4.68;;
67528;SDS011;54366;51.980;5.856;2023-04-24T06:44:57;5.45;;;5.00;;
67528;SDS011;54366;51.980;5.856;2023-04-24T06:47:31;4.82;;;4.43;;
67528;SDS011;54366;51.980;5.856;2023-04-24T06:50:04;3.88;;;3.47;;
67528;SDS011;54366;51.980;5.856;2023-04-24T06:52:31;3.10;;;2.90;;
67528;SDS011;54366;51.980;5.856;2023-04-24T06:55:07;3.25;;;3.05;;
67528;SDS011;54366;51.980;5.856;2023-04-24T06:57:34;4.07;;;3.58;;
67528;SDS011;54366;51.980;5.856;2023-04-24T07:00:07;3.40;;;3.10;;
67528;SDS011;54366;51.980;5.856;2023-04-24T07:02:41;3.40;;;3.05;;
67528;SDS011;54366;51.980;5.856;2023-04-24T07:05:08;2.53;;;2.33;;
67528;SDS011;54366;51.980;5.856;2023-04-24T07:07:47;2.63;;;2.42;;
67528;SDS011;54366;51.980;5.856;2023-04-24T07:10:26;2.40;;;2.20;;
67528;SDS011;54366;51.980;5.856;2023-04-24T07:13:01;2.40;;;2.00;;
67528;SDS011;54366;51.980;5.856;2023-04-24T07:15:27;2.08;;;1.90;;
67528;SDS011;54366;51.980;5.856;2023-04-24T07:18:00;1.67;;;1.58;;
67528;SDS011;54366;51.980;5.856;2023-04-24T07:20:32;1.67;;;1.50;;
67528;SDS011;54366;51.980;5.856;2023-04-24T07:23:05;1.70;;;1.60;;
67528;SDS011;54366;51.980;5.856;2023-04-24T07:25:38;1.50;;;1.40;;
67528;SDS011;54366;51.980;5.856;2023-04-24T07:28:12;1.77;;;1.10;;
67528;SDS011;54366;51.980;5.856;2023-04-24T07:30:38;0.50;;;0.50;;
67528;SDS011;54366;51.980;5.856;2023-04-24T07:33:12;0.60;;;0.60;;
67528;SDS011;54366;51.980;5.856;2023-04-24T07:35:38;1.45;;;0.80;;
67528;SDS011;54366;51.980;5.856;2023-04-24T07:38:11;0.80;;;0.80;;
67528;SDS011;54366;51.980;5.856;2023-04-24T07:40:38;1.50;;;1.40;;
67528;SDS011;54366;51.980;5.856;2023-04-24T07:43:10;3.97;;;2.72;;
67528;SDS011;54366;51.980;5.856;2023-04-24T07:45:43;3.08;;;2.78;;
67528;SDS011;54366;51.980;5.856;2023-04-24T07:48:17;2.50;;;2.30;;
67528;SDS011;54366;51.980;5.856;2023-04-24T07:50:46;5.00;;;3.50;;
67528;SDS011;54366;51.980;5.856;2023-04-24T07:53:18;4.90;;;4.22;;
67528;SDS011;54366;51.980;5.856;2023-04-24T07:55:51;4.28;;;3.88;;
67528;SDS011;54366;51.980;5.856;2023-04-24T07:58:25;8.35;;;6.13;;
67528;SDS011;54366;51.980;5.856;2023-04-24T08:00:58;8.77;;;7.15;;
67528;SDS011;54366;51.980;5.856;2023-04-24T08:03:31;7.80;;;7.00;;
67528;SDS011;54366;51.980;5.856;2023-04-24T08:06:11;8.23;;;6.13;;
67528;SDS011;54366;51.980;5.856;2023-04-24T08:08:44;9.13;;;7.72;;
67528;SDS011;54366;51.980;5.856;2023-04-24T08:11:24;8.88;;;7.25;;
67528;SDS011;54366;51.980;5.856;2023-04-24T08:13:57;12.05;;;8.50;;
67528;SDS011;54366;51.980;5.856;2023-04-24T08:16:32;11.88;;;8.77;;
67528;SDS011;54366;51.980;5.856;2023-04-24T08:19:06;8.95;;;7.10;;
67528;SDS011;54366;51.980;5.856;2023-04-24T08:21:38;9.88;;;7.32;;
67528;SDS011;54366;51.980;5.856;2023-04-24T08:24:11;9.73;;;8.52;;
67528;SDS011;54366;51.980;5.856;2023-04-24T08:26:45;10.02;;;7.80;;
67528;SDS011;54366;51.980;5.856;2023-04-24T08:29:17;10.77;;;7.38;;
67528;SDS011;54366;51.980;5.856;2023-04-24T08:31:44;7.82;;;6.65;;
67528;SDS011;54366;51.980;5.856;2023-04-24T08:34:16;12.77;;;7.65;;
67528;SDS011;54366;51.980;5.856;2023-04-24T08:36:50;9.55;;;8.30;;
67528;SDS011;54366;51.980;5.856;2023-04-24T08:39:30;9.23;;;7.57;;
67528;SDS011;54366;51.980;5.856;2023-04-24T08:42:03;10.57;;;7.10;;
67528;SDS011;54366;51.980;5.856;2023-04-24T08:44:43;10.45;;;7.18;;
67528;SDS011;54366;51.980;5.856;2023-04-24T08:47:16;8.25;;;6.88;;
67528;SDS011;54366;51.980;5.856;2023-04-24T08:49:51;8.02;;;6.45;;
67528;SDS011;54366;51.980;5.856;2023-04-24T08:52:19;9.23;;;7.65;;
67528;SDS011;54366;51.980;5.856;2023-04-24T08:54:53;8.90;;;7.65;;
67528;SDS011;54366;51.980;5.856;2023-04-24T08:57:28;8.38;;;6.35;;
67528;SDS011;54366;51.980;5.856;2023-04-24T09:00:03;7.85;;;6.30;;
67528;SDS011;54366;51.980;5.856;2023-04-24T09:02:30;7.68;;;6.47;;
67528;SDS011;54366;51.980;5.856;2023-04-24T09:05:04;6.50;;;4.25;;
67528;SDS011;54366;51.980;5.856;2023-04-24T09:07:53;6.28;;;3.72;;
67528;SDS011;54366;51.980;5.856;2023-04-24T09:10:27;7.80;;;3.00;;
67528;SDS011;54366;51.980;5.856;2023-04-24T09:13:03;7.90;;;3.35;;
67528;SDS011;54366;51.980;5.856;2023-04-24T09:15:29;6.00;;;3.05;;
67528;SDS011;54366;51.980;5.856;2023-04-24T09:18:04;8.30;;;3.60;;
67528;SDS011;54366;51.980;5.856;2023-04-24T09:20:31;9.43;;;3.70;;
67528;SDS011;54366;51.980;5.856;2023-04-24T09:23:05;6.75;;;3.10;;
67528;SDS011;54366;51.980;5.856;2023-04-24T09:25:32;6.13;;;2.80;;
67528;SDS011;54366;51.980;5.856;2023-04-24T09:28:05;12.00;;;3.50;;
67528;SDS011;54366;51.980;5.856;2023-04-24T09:30:32;6.15;;;2.58;;
67528;SDS011;54366;51.980;5.856;2023-04-24T09:33:14;10.23;;;3.47;;
67528;SDS011;54366;51.980;5.856;2023-04-24T09:35:51;9.63;;;3.17;;
67528;SDS011;54366;51.980;5.856;2023-04-24T09:38:33;10.07;;;2.97;;
67528;SDS011;54366;51.980;5.856;2023-04-24T09:41:08;10.07;;;3.15;;
67528;SDS011;54366;51.980;5.856;2023-04-24T09:43:45;9.95;;;2.67;;
67528;SDS011;54366;51.980;5.856;2023-04-24T09:46:18;11.70;;;3.25;;
67528;SDS011;54366;51.980;5.856;2023-04-24T09:48:46;8.55;;;3.05;;
67528;SDS011;54366;51.980;5.856;2023-04-24T09:51:19;9.07;;;3.08;;
67528;SDS011;54366;51.980;5.856;2023-04-24T09:54:17;6.75;;;2.50;;
67528;SDS011;54366;51.980;5.856;2023-04-24T09:56:55;6.78;;;2.65;;
67528;SDS011;54366;51.980;5.856;2023-04-24T09:59:27;9.32;;;2.67;;
67528;SDS011;54366;51.980;5.856;2023-04-24T10:01:55;10.82;;;2.92;;
67528;SDS011;54366;51.980;5.856;2023-04-24T10:04:28;7.65;;;2.67;;
67528;SDS011;54366;51.980;5.856;2023-04-24T10:06:55;8.07;;;3.00;;
67528;SDS011;54366;51.980;5.856;2023-04-24T10:09:28;8.55;;;2.40;;
67528;SDS011;54366;51.980;5.856;2023-04-24T10:12:01;6.60;;;2.35;;
67528;SDS011;54366;51.980;5.856;2023-04-24T10:14:34;6.75;;;2.22;;
67528;SDS011;54366;51.980;5.856;2023-04-24T10:17:07;7.35;;;2.80;;
67528;SDS011;54366;51.980;5.856;2023-04-24T10:19:34;7.32;;;2.70;;
67528;SDS011;54366;51.980;5.856;2023-04-24T10:22:07;7.43;;;2.90;;
67528;SDS011;54366;51.980;5.856;2023-04-24T10:24:40;8.18;;;2.85;;
67528;SDS011;54366;51.980;5.856;2023-04-24T10:27:13;6.07;;;2.50;;
67528;SDS011;54366;51.980;5.856;2023-04-24T10:29:47;8.35;;;2.60;;
67528;SDS011;54366;51.980;5.856;2023-04-24T10:32:24;6.60;;;2.70;;
67528;SDS011;54366;51.980;5.856;2023-04-24T10:34:50;8.23;;;2.90;;
67528;SDS011;54366;51.980;5.856;2023-04-24T10:37:23;6.85;;;2.78;;
67528;SDS011;54366;51.980;5.856;2023-04-24T10:39:57;10.30;;;2.78;;
67528;SDS011;54366;51.980;5.856;2023-04-24T10:42:30;5.47;;;2.13;;
67528;SDS011;54366;51.980;5.856;2023-04-24T10:44:56;5.10;;;1.63;;
67528;SDS011;54366;51.980;5.856;2023-04-24T10:47:29;7.33;;;2.00;;
67528;SDS011;54366;51.980;5.856;2023-04-24T10:50:13;6.60;;;2.22;;
67528;SDS011;54366;51.980;5.856;2023-04-24T10:52:45;6.43;;;2.08;;
67528;SDS011;54366;51.980;5.856;2023-04-24T10:58:11;5.70;;;1.90;;
67528;SDS011;54366;51.980;5.856;2023-04-24T11:00:47;4.90;;;1.67;;
67528;SDS011;54366;51.980;5.856;2023-04-24T11:03:31;2.90;;;1.48;;
67528;SDS011;54366;51.980;5.856;2023-04-24T11:06:06;3.65;;;1.60;;
67528;SDS011;54366;51.980;5.856;2023-04-24T11:08:43;3.97;;;1.33;;
67528;SDS011;54366;51.980;5.856;2023-04-24T11:11:24;4.55;;;1.27;;
67528;SDS011;54366;51.980;5.856;2023-04-24T11:14:01;3.78;;;1.00;;
67528;SDS011;54366;51.980;5.856;2023-04-24T11:16:47;2.83;;;0.80;;
67528;SDS011;54366;51.980;5.856;2023-04-24T11:19:25;3.97;;;1.10;;
67528;SDS011;54366;51.980;5.856;2023-04-24T11:22:01;3.58;;;1.27;;
67528;SDS011;54366;51.980;5.856;2023-04-24T11:24:39;3.85;;;0.88;;
67528;SDS011;54366;51.980;5.856;2023-04-24T11:27:29;5.20;;;1.25;;
67528;SDS011;54366;51.980;5.856;2023-04-24T11:30:04;2.85;;;0.90;;
67528;SDS011;54366;51.980;5.856;2023-04-24T11:32:41;2.60;;;0.90;;
67528;SDS011;54366;51.980;5.856;2023-04-24T11:35:18;1.92;;;0.52;;
67528;SDS011;54366;51.980;5.856;2023-04-24T11:37:53;5.82;;;1.00;;
67528;SDS011;54366;51.980;5.856;2023-04-24T11:40:20;1.25;;;0.35;;
67528;SDS011;54366;51.980;5.856;2023-04-24T11:42:59;1.60;;;0.40;;
67528;SDS011;54366;51.980;5.856;2023-04-24T11:45:32;2.35;;;0.52;;
67528;SDS011;54366;51.980;5.856;2023-04-24T11:48:05;2.00;;;0.40;;
67528;SDS011;54366;51.980;5.856;2023-04-24T11:50:38;1.92;;;0.60;;
67528;SDS011;54366;51.980;5.856;2023-04-24T11:53:12;3.30;;;0.55;;
67528;SDS011;54366;51.980;5.856;2023-04-24T11:55:38;1.27;;;0.30;;
67528;SDS011;54366;51.980;5.856;2023-04-24T11:58:10;2.47;;;0.50;;
67528;SDS011;54366;51.980;5.856;2023-04-24T12:00:43;1.45;;;0.52;;
67528;SDS011;54366;51.980;5.856;2023-04-24T12:03:17;2.53;;;0.52;;
67528;SDS011;54366;51.980;5.856;2023-04-24T12:05:51;2.08;;;0.38;;
67528;SDS011;54366;51.980;5.856;2023-04-24T12:08:30;3.20;;;0.50;;
67528;SDS011;54366;51.980;5.856;2023-04-24T12:11:05;1.80;;;0.40;;
67528;SDS011;54366;51.980;5.856;2023-04-24T12:13:33;2.92;;;0.40;;
67528;SDS011;54366;51.980;5.856;2023-04-24T12:18:33;1.42;;;0.45;;
67528;SDS011;54366;51.980;5.856;2023-04-24T12:21:16;2.10;;;0.40;;
67528;SDS011;54366;51.980;5.856;2023-04-24T12:23:50;2.88;;;0.50;;
67528;SDS011;54366;51.980;5.856;2023-04-24T12:26:17;2.05;;;0.40;;
67528;SDS011;54366;51.980;5.856;2023-04-24T12:28:51;2.22;;;0.60;;
67528;SDS011;54366;51.980;5.856;2023-04-24T12:31:23;2.17;;;0.50;;
67528;SDS011;54366;51.980;5.856;2023-04-24T12:33:57;2.25;;;0.52;;
67528;SDS011;54366;51.980;5.856;2023-04-24T12:36:29;2.15;;;0.40;;
67528;SDS011;54366;51.980;5.856;2023-04-24T12:39:02;2.55;;;0.50;;
67528;SDS011;54366;51.980;5.856;2023-04-24T12:41:55;2.17;;;0.40;;
67528;SDS011;54366;51.980;5.856;2023-04-24T12:44:32;1.25;;;0.35;;
67528;SDS011;54366;51.980;5.856;2023-04-24T12:47:06;3.45;;;0.70;;
67528;SDS011;54366;51.980;5.856;2023-04-24T12:49:40;1.58;;;0.40;;
67528;SDS011;54366;51.980;5.856;2023-04-24T12:52:13;2.55;;;0.40;;
67528;SDS011;54366;51.980;5.856;2023-04-24T12:54:45;1.10;;;0.30;;
67528;SDS011;54366;51.980;5.856;2023-04-24T12:57:19;2.40;;;0.50;;
67528;SDS011;54366;51.980;5.856;2023-04-24T12:59:55;2.08;;;0.40;;
67528;SDS011;54366;51.980;5.856;2023-04-24T13:02:29;3.60;;;0.43;;
67528;SDS011;54366;51.980;5.856;2023-04-24T13:05:04;2.00;;;0.50;;
67528;SDS011;54366;51.980;5.856;2023-04-24T13:07:38;1.35;;;0.50;;
67528;SDS011;54366;51.980;5.856;2023-04-24T13:10:24;1.77;;;0.40;;
67528;SDS011;54366;51.980;5.856;2023-04-24T13:12:57;2.75;;;0.60;;
67528;SDS011;54366;51.980;5.856;2023-04-24T13:15:23;3.78;;;1.00;;
67528;SDS011;54366;51.980;5.856;2023-04-24T13:17:57;2.53;;;0.70;;
67528;SDS011;54366;51.980;5.856;2023-04-24T13:20:30;3.60;;;0.80;;
67528;SDS011;54366;51.980;5.856;2023-04-24T13:23:03;3.45;;;0.93;;
67528;SDS011;54366;51.980;5.856;2023-04-24T13:25:36;2.63;;;0.80;;
67528;SDS011;54366;51.980;5.856;2023-04-24T13:28:04;3.05;;;0.85;;
67528;SDS011;54366;51.980;5.856;2023-04-24T13:30:38;3.50;;;0.90;;
67528;SDS011;54366;51.980;5.856;2023-04-24T13:33:11;4.53;;;1.42;;
67528;SDS011;54366;51.980;5.856;2023-04-24T13:35:44;3.72;;;1.20;;
67528;SDS011;54366;51.980;5.856;2023-04-24T13:38:10;5.28;;;1.50;;
67528;SDS011;54366;51.980;5.856;2023-04-24T13:40:43;4.45;;;1.45;;
67528;SDS011;54366;51.980;5.856;2023-04-24T13:43:16;5.78;;;1.10;;
67528;SDS011;54366;51.980;5.856;2023-04-24T13:45:49;3.47;;;1.17;;
67528;SDS011;54366;51.980;5.856;2023-04-24T13:48:22;2.67;;;1.00;;
67528;SDS011;54366;51.980;5.856;2023-04-24T13:50:48;4.57;;;1.30;;
67528;SDS011;54366;51.980;5.856;2023-04-24T13:53:22;4.25;;;1.13;;
67528;SDS011;54366;51.980;5.856;2023-04-24T13:55:48;7.95;;;1.50;;
67528;SDS011;54366;51.980;5.856;2023-04-24T13:58:22;5.05;;;1.52;;
67528;SDS011;54366;51.980;5.856;2023-04-24T14:00:48;5.93;;;1.92;;
67528;SDS011;54366;51.980;5.856;2023-04-24T14:03:21;5.90;;;1.58;;
67528;SDS011;54366;51.980;5.856;2023-04-24T14:05:54;5.93;;;1.60;;
67528;SDS011;54366;51.980;5.856;2023-04-24T14:08:20;5.35;;;1.58;;
67528;SDS011;54366;51.980;5.856;2023-04-24T14:10:53;5.82;;;1.52;;
67528;SDS011;54366;51.980;5.856;2023-04-24T14:13:26;4.35;;;1.48;;
67528;SDS011;54366;51.980;5.856;2023-04-24T14:15:53;8.60;;;2.10;;
67528;SDS011;54366;51.980;5.856;2023-04-24T14:18:26;6.07;;;1.90;;
67528;SDS011;54366;51.980;5.856;2023-04-24T14:20:59;4.55;;;1.63;;
67528;SDS011;54366;51.980;5.856;2023-04-24T14:23:33;5.25;;;1.60;;
67528;SDS011;54366;51.980;5.856;2023-04-24T14:26:06;4.82;;;1.60;;
67528;SDS011;54366;51.980;5.856;2023-04-24T14:28:33;3.55;;;1.45;;
67528;SDS011;54366;51.980;5.856;2023-04-24T14:31:06;7.45;;;1.70;;
67528;SDS011;54366;51.980;5.856;2023-04-24T14:33:39;6.45;;;1.80;;
67528;SDS011;54366;51.980;5.856;2023-04-24T14:36:12;5.18;;;1.92;;
67528;SDS011;54366;51.980;5.856;2023-04-24T14:38:45;5.35;;;1.33;;
67528;SDS011;54366;51.980;5.856;2023-04-24T14:41:18;5.95;;;1.65;;
67528;SDS011;54366;51.980;5.856;2023-04-24T14:43:51;5.22;;;1.80;;
67528;SDS011;54366;51.980;5.856;2023-04-24T14:46:17;4.78;;;2.00;;
67528;SDS011;54366;51.980;5.856;2023-04-24T14:48:50;4.45;;;1.77;;
67528;SDS011;54366;51.980;5.856;2023-04-24T14:51:23;5.88;;;1.80;;
67528;SDS011;54366;51.980;5.856;2023-04-24T14:53:56;4.43;;;1.58;;
67528;SDS011;54366;51.980;5.856;2023-04-24T14:56:29;3.55;;;1.42;;
67528;SDS011;54366;51.980;5.856;2023-04-24T14:59:02;5.60;;;1.70;;
67528;SDS011;54366;51.980;5.856;2023-04-24T15:01:35;5.13;;;1.77;;
67528;SDS011;54366;51.980;5.856;2023-04-24T15:04:08;6.05;;;1.60;;
67528;SDS011;54366;51.980;5.856;2023-04-24T15:06:41;4.00;;;1.35;;
67528;SDS011;54366;51.980;5.856;2023-04-24T15:09:28;2.55;;;1.10;;
67528;SDS011;54366;51.980;5.856;2023-04-24T15:12:01;5.10;;;1.70;;
67528;SDS011;54366;51.980;5.856;2023-04-24T15:14:34;5.78;;;2.30;;
67528;SDS011;54366;51.980;5.856;2023-04-24T15:17:07;5.60;;;1.80;;
67528;SDS011;54366;51.980;5.856;2023-04-24T15:19:40;8.60;;;2.33;;
67528;SDS011;54366;51.980;5.856;2023-04-24T15:22:13;6.18;;;2.22;;
67528;SDS011;54366;51.980;5.856;2023-04-24T15:24:39;3.95;;;1.75;;